Time;durP1;ratioP1;P1;durP2;ratioP2;P2;SDS_P1;SDS_P2;PMS_P1;PMS_P2;Temp;Humidity;BMP_temperature;BMP_pressure;BME280_temperature;BME280_humidity;BME280_pressure;Samples;Min_cycle;Max_cycle;Signal;HPM_P1;HPM_P2
2022/09/30 00:00:32;;;;;;;11.53;9.07;;;9.40;99.90;;;;;;4978321;28;20888;-70
2022/09/30 00:02:59;;;;;;;11.10;10.00;;;9.40;99.90;;;;;;4978107;28;20466;-70
2022/09/30 00:05:26;;;;;;;11.67;10.47;;;9.40;99.90;;;;;;4978004;28;20477;-70
2022/09/30 00:07:54;;;;;;;12.07;9.70;;;9.30;99.90;;;;;;4978246;28;20472;-70
2022/09/30 00:10:21;;;;;;;10.97;9.47;;;9.40;99.90;;;;;;4978088;28;20458;-69
2022/09/30 00:12:47;;;;;;;11.53;9.80;;;9.30;99.90;;;;;;4977605;28;20463;-69
2022/09/30 00:15:14;;;;;;;10.70;9.20;;;9.30;99.90;;;;;;4977488;28;20463;-69
2022/09/30 00:17:41;;;;;;;10.10;8.43;;;9.30;99.90;;;;;;4977820;28;20929;-69
2022/09/30 00:20:09;;;;;;;11.13;10.00;;;9.30;99.90;;;;;;4977681;28;20458;-70
2022/09/30 00:22:36;;;;;;;10.13;9.13;;;9.30;99.90;;;;;;4977829;28;20459;-70
2022/09/30 00:25:05;;;;;;;10.47;9.37;;;9.30;99.90;;;;;;4978156;28;20462;-70
2022/09/30 00:27:31;;;;;;;11.07;9.57;;;9.20;99.90;;;;;;4977949;28;20455;-70
2022/09/30 00:29:58;;;;;;;11.53;9.67;;;9.20;99.90;;;;;;4978275;28;20794;-70
2022/09/30 00:32:25;;;;;;;11.87;9.83;;;9.20;99.90;;;;;;4978143;28;20983;-70
2022/09/30 00:34:52;;;;;;;10.40;9.40;;;9.20;99.90;;;;;;4977861;28;20455;-70
2022/09/30 00:37:19;;;;;;;11.27;9.70;;;9.20;99.90;;;;;;4978252;28;20495;-70
2022/09/30 00:39:45;;;;;;;12.47;9.67;;;9.20;99.90;;;;;;4978171;28;20929;-70
2022/09/30 00:42:18;;;;;;;14.40;9.37;;;9.20;99.90;;;;;;4978647;28;20463;-70
2022/09/30 00:44:49;;;;;;;11.27;8.83;;;9.20;99.90;;;;;;4977084;28;20443;-70
2022/09/30 00:47:43;;;;;;;11.97;8.80;;;9.10;99.90;;;;;;4977978;28;20748;-70
2022/09/30 00:50:20;;;;;;;11.27;9.23;;;9.10;99.90;;;;;;4968176;28;20471;-71
2022/09/30 00:52:52;;;;;;;10.50;9.40;;;9.10;99.90;;;;;;4976947;28;20495;-70
2022/09/30 00:55:35;;;;;;;9.80;8.80;;;9.10;99.90;;;;;;4976959;28;20453;-70
2022/09/30 00:58:05;;;;;;;10.87;9.03;;;9.10;99.90;;;;;;4977124;28;20443;-70
2022/09/30 01:00:32;;;;;;;10.47;9.00;;;9.10;99.90;;;;;;4977368;28;20541;-70
2022/09/30 01:02:59;;;;;;;9.37;8.17;;;9.10;99.90;;;;;;4977202;28;20462;-70
2022/09/30 01:05:26;;;;;;;10.17;8.80;;;9.00;99.90;;;;;;4976799;28;20509;-70
2022/09/30 01:07:56;;;;;;;10.10;8.97;;;9.00;99.90;;;;;;4977307;28;20459;-70
2022/09/30 01:10:22;;;;;;;10.57;9.00;;;9.00;99.90;;;;;;4976980;28;20465;-70
2022/09/30 01:12:50;;;;;;;10.70;9.60;;;9.00;99.90;;;;;;4977398;28;20536;-70
2022/09/30 01:15:21;;;;;;;10.17;9.07;;;9.00;99.90;;;;;;4976717;28;20454;-70
2022/09/30 01:17:55;;;;;;;9.17;8.27;;;9.00;99.90;;;;;;4977212;28;20471;-71
2022/09/30 01:20:44;;;;;;;9.70;8.70;;;9.00;99.90;;;;;;4977643;28;20575;-70
2022/09/30 01:23:34;;;;;;;9.60;8.57;;;8.90;99.90;;;;;;4977556;28;20443;-70
2022/09/30 01:26:22;;;;;;;9.40;8.50;;;8.90;99.90;;;;;;4977292;28;20435;-71
2022/09/30 01:29:13;;;;;;;9.97;8.73;;;8.90;99.90;;;;;;4976517;28;20435;-70
2022/09/30 01:31:53;;;;;;;9.60;8.60;;;8.90;99.90;;;;;;4976427;28;20443;-70
2022/09/30 01:34:29;;;;;;;9.90;8.70;;;8.90;99.90;;;;;;4976680;28;20442;-70
2022/09/30 01:37:08;;;;;;;9.33;8.20;;;8.90;99.90;;;;;;4976546;28;20477;-70
2022/09/30 01:39:46;;;;;;;9.73;8.80;;;8.90;99.90;;;;;;4976544;28;20915;-70
2022/09/30 01:42:22;;;;;;;11.00;8.47;;;8.90;99.90;;;;;;4976803;28;20446;-70
2022/09/30 01:45:01;;;;;;;9.53;8.50;;;8.80;99.90;;;;;;4976792;28;20443;-70
2022/09/30 01:47:34;;;;;;;9.60;8.60;;;8.80;99.90;;;;;;4976194;28;20478;-70
2022/09/30 01:50:07;;;;;;;9.90;8.07;;;8.80;99.90;;;;;;4976666;28;20762;-70
2022/09/30 01:52:38;;;;;;;9.00;8.10;;;8.80;99.90;;;;;;4976169;28;20486;-70
2022/09/30 01:55:12;;;;;;;10.63;9.63;;;8.80;99.90;;;;;;4975809;28;20539;-70
2022/09/30 01:57:45;;;;;;;9.27;8.30;;;8.80;99.90;;;;;;4976270;28;20851;-70
2022/09/30 02:00:14;;;;;;;9.20;8.30;;;8.80;99.90;;;;;;4976187;28;20447;-70
2022/09/30 02:02:48;;;;;;;9.00;8.10;;;8.70;99.90;;;;;;4975848;28;20506;-70
2022/09/30 02:05:19;;;;;;;13.83;9.50;;;8.80;99.90;;;;;;4976276;28;20457;-70
2022/09/30 02:07:49;;;;;;;9.97;8.60;;;8.70;99.90;;;;;;4976395;28;20443;-70
2022/09/30 02:10:19;;;;;;;8.70;7.90;;;8.70;99.90;;;;;;4976380;28;20466;-70
2022/09/30 02:12:51;;;;;;;9.20;8.17;;;8.70;99.90;;;;;;4975940;28;20459;-70
2022/09/30 02:15:22;;;;;;;11.07;9.20;;;8.60;99.90;;;;;;4975990;28;20479;-70
2022/09/30 02:17:55;;;;;;;9.60;8.60;;;8.60;99.90;;;;;;4975907;28;20471;-70
2022/09/30 02:20:25;;;;;;;9.70;8.70;;;8.60;99.90;;;;;;4976046;28;20724;-70
2022/09/30 02:22:59;;;;;;;11.00;7.80;;;8.60;99.90;;;;;;4976152;28;20459;-70
2022/09/30 02:25:32;;;;;;;9.10;7.83;;;8.60;99.90;;;;;;4975771;28;20443;-70
2022/09/30 02:28:04;;;;;;;9.13;8.00;;;8.60;99.90;;;;;;4975963;28;20650;-70
2022/09/30 02:30:31;;;;;;;9.90;8.90;;;8.60;99.90;;;;;;4977748;28;20451;-70
2022/09/30 02:33:03;;;;;;;9.30;8.30;;;8.60;99.90;;;;;;4978209;28;20458;-69
2022/09/30 02:35:35;;;;;;;8.63;7.50;;;8.60;99.90;;;;;;4977118;28;20473;-70
2022/09/30 02:38:05;;;;;;;9.70;8.80;;;8.60;99.90;;;;;;4975555;28;20467;-70
2022/09/30 02:40:38;;;;;;;8.13;7.33;;;8.60;99.90;;;;;;4976370;28;20490;-70
2022/09/30 02:43:06;;;;;;;9.30;7.77;;;8.60;99.90;;;;;;4976071;28;20447;-70
2022/09/30 02:45:43;;;;;;;9.03;7.60;;;8.60;99.90;;;;;;4975293;28;20458;-69
2022/09/30 02:48:23;;;;;;;10.20;8.30;;;8.50;99.90;;;;;;4975456;28;20458;-70
2022/09/30 02:50:54;;;;;;;8.97;8.10;;;8.60;99.90;;;;;;4975494;28;20553;-70
2022/09/30 02:53:27;;;;;;;8.70;7.80;;;8.60;99.90;;;;;;4975322;28;20493;-69
2022/09/30 02:56:08;;;;;;;9.03;8.13;;;8.50;99.90;;;;;;4975278;28;20887;-69
2022/09/30 02:58:38;;;;;;;8.30;7.20;;;8.50;99.90;;;;;;4975004;28;20446;-70
2022/09/30 03:01:06;;;;;;;8.73;7.80;;;8.50;99.90;;;;;;4975165;28;20482;-70
2022/09/30 03:03:38;;;;;;;11.00;7.87;;;8.50;99.90;;;;;;4975458;28;20885;-69
2022/09/30 03:06:05;;;;;;;8.20;7.40;;;8.50;99.90;;;;;;4975341;28;20794;-70
2022/09/30 03:08:32;;;;;;;9.67;7.77;;;8.50;99.90;;;;;;4975134;28;20767;-69
2022/09/30 03:10:59;;;;;;;10.33;8.67;;;8.50;99.90;;;;;;4975156;28;20451;-70
2022/09/30 03:13:54;;;;;;;9.50;7.53;;;8.50;99.90;;;;;;4977267;28;20816;-70
2022/09/30 03:16:35;;;;;;;10.53;7.53;;;8.40;99.90;;;;;;4978322;28;20949;-69
2022/09/30 03:19:19;;;;;;;9.77;7.63;;;8.40;99.90;;;;;;4978271;28;20442;-70
2022/09/30 03:22:02;;;;;;;8.40;7.50;;;8.40;99.90;;;;;;4978233;28;20901;-69
2022/09/30 03:24:46;;;;;;;8.67;7.73;;;8.40;99.90;;;;;;4978152;28;20852;-70
2022/09/30 03:27:20;;;;;;;8.67;7.80;;;8.40;99.90;;;;;;4978545;28;20895;-69
2022/09/30 03:29:57;;;;;;;10.53;8.53;;;8.40;99.90;;;;;;4978317;28;20448;-69
2022/09/30 03:32:37;;;;;;;11.10;8.50;;;8.30;99.90;;;;;;4978360;28;20453;-69
2022/09/30 03:35:17;;;;;;;8.30;7.13;;;8.30;99.90;;;;;;4978334;28;20447;-70
2022/09/30 03:37:50;;;;;;;9.23;8.27;;;8.40;99.90;;;;;;4977928;28;20525;-70
2022/09/30 03:40:28;;;;;;;9.90;8.23;;;8.30;99.90;;;;;;4978277;28;20523;-70
2022/09/30 03:43:00;;;;;;;9.87;8.67;;;8.40;99.90;;;;;;4978155;28;20447;-70
2022/09/30 03:45:33;;;;;;;10.57;8.20;;;8.30;99.90;;;;;;4977926;28;20473;-70
2022/09/30 03:48:04;;;;;;;9.77;8.00;;;8.40;99.90;;;;;;4978303;28;20439;-69
2022/09/30 03:50:35;;;;;;;9.37;8.13;;;8.40;99.90;;;;;;4978079;28;20451;-70
2022/09/30 03:53:03;;;;;;;9.07;8.17;;;8.40;99.90;;;;;;4977784;28;20490;-69
2022/09/30 03:55:32;;;;;;;8.77;7.87;;;8.40;99.90;;;;;;4977863;28;20530;-70
2022/09/30 03:57:59;;;;;;;11.07;9.43;;;8.30;99.90;;;;;;4977482;28;20490;-70
2022/09/30 04:00:25;;;;;;;10.40;9.40;;;8.30;99.90;;;;;;4977929;28;20463;-69
2022/09/30 04:02:52;;;;;;;15.00;8.40;;;8.30;99.90;;;;;;4977873;28;20469;-70
2022/09/30 04:05:19;;;;;;;12.30;9.27;;;8.30;99.90;;;;;;4977694;28;20458;-70
2022/09/30 04:07:47;;;;;;;10.27;9.17;;;8.30;99.90;;;;;;4977412;28;20454;-69
2022/09/30 04:10:14;;;;;;;9.63;8.70;;;8.30;99.90;;;;;;4977795;28;20465;-69
2022/09/30 04:12:41;;;;;;;10.27;9.03;;;8.30;99.90;;;;;;4977213;28;20459;-69
2022/09/30 04:15:09;;;;;;;9.37;8.47;;;8.30;99.90;;;;;;4977325;28;20470;-70
2022/09/30 04:17:36;;;;;;;10.43;8.90;;;8.20;99.90;;;;;;4977065;28;20486;-70
2022/09/30 04:20:02;;;;;;;12.90;9.63;;;8.20;99.90;;;;;;4977500;28;20475;-70
2022/09/30 04:22:29;;;;;;;9.90;8.90;;;8.20;99.90;;;;;;4977280;28;20541;-69
2022/09/30 04:24:57;;;;;;;9.83;8.20;;;8.20;99.90;;;;;;4976019;28;20990;-70
2022/09/30 04:27:25;;;;;;;10.83;9.13;;;8.20;99.90;;;;;;4977303;28;20464;-70
2022/09/30 04:29:51;;;;;;;9.70;8.33;;;8.20;99.90;;;;;;4977350;28;20462;-69
2022/09/30 04:32:20;;;;;;;11.40;8.93;;;8.10;99.90;;;;;;4977311;28;20799;-70
2022/09/30 04:34:47;;;;;;;10.77;9.67;;;8.10;99.90;;;;;;4977311;28;20532;-70
2022/09/30 04:37:14;;;;;;;10.70;9.53;;;8.10;99.90;;;;;;4976775;28;20974;-69
2022/09/30 04:39:40;;;;;;;10.90;9.30;;;8.10;99.90;;;;;;4976952;28;20466;-70
2022/09/30 04:42:09;;;;;;;12.53;10.10;;;8.10;99.90;;;;;;4977200;28;20473;-70
2022/09/30 04:44:35;;;;;;;10.87;9.77;;;8.10;99.90;;;;;;4976982;28;21002;-70
2022/09/30 04:47:02;;;;;;;12.90;9.70;;;8.10;99.90;;;;;;4976743;28;20459;-70
2022/09/30 04:49:29;;;;;;;11.53;9.47;;;8.10;99.90;;;;;;4976950;28;20801;-70
2022/09/30 04:51:56;;;;;;;11.30;9.37;;;8.10;99.90;;;;;;4976849;28;20619;-69
2022/09/30 04:54:23;;;;;;;9.80;8.50;;;8.00;99.90;;;;;;4976575;28;20447;-70
2022/09/30 04:56:50;;;;;;;11.83;9.77;;;8.10;99.90;;;;;;4976717;28;20895;-70
2022/09/30 04:59:19;;;;;;;11.13;9.70;;;8.10;99.90;;;;;;4976519;28;20463;-70
2022/09/30 05:01:46;;;;;;;9.83;8.80;;;8.10;99.90;;;;;;4976984;28;20459;-70
2022/09/30 05:04:12;;;;;;;12.20;9.43;;;8.00;99.90;;;;;;4976359;28;20950;-70
2022/09/30 05:06:39;;;;;;;9.60;8.60;;;8.10;99.90;;;;;;4976331;28;20989;-70
2022/09/30 05:09:07;;;;;;;13.17;9.60;;;8.00;99.90;;;;;;4976885;28;20462;-71
2022/09/30 05:11:35;;;;;;;12.10;9.60;;;8.10;99.90;;;;;;4976847;28;20858;-70
2022/09/30 05:14:07;;;;;;;11.63;9.43;;;8.00;99.90;;;;;;4976973;28;20462;-70
2022/09/30 05:16:36;;;;;;;11.67;9.93;;;8.00;99.90;;;;;;4976881;28;20455;-71
2022/09/30 05:19:03;;;;;;;13.73;10.90;;;8.00;99.90;;;;;;4976126;28;20483;-70
2022/09/30 05:21:30;;;;;;;13.47;10.83;;;8.10;99.90;;;;;;4976396;28;20467;-70
2022/09/30 05:23:57;;;;;;;12.27;9.87;;;8.10;99.90;;;;;;4976268;28;20950;-70
2022/09/30 05:26:24;;;;;;;11.50;9.67;;;8.10;99.90;;;;;;4976393;28;20915;-69
2022/09/30 05:28:50;;;;;;;11.17;9.40;;;8.10;99.90;;;;;;4976602;28;20469;-71
2022/09/30 05:31:19;;;;;;;12.03;10.00;;;8.10;99.90;;;;;;4976534;28;20469;-70
2022/09/30 05:33:47;;;;;;;13.03;10.23;;;8.20;99.90;;;;;;4976450;28;20558;-71
2022/09/30 05:36:16;;;;;;;11.13;10.00;;;8.10;99.90;;;;;;4975819;28;20470;-69
2022/09/30 05:38:43;;;;;;;12.43;10.33;;;8.10;99.90;;;;;;4976525;28;20487;-70
2022/09/30 05:41:11;;;;;;;14.30;11.03;;;8.20;99.90;;;;;;4976562;28;20907;-70
2022/09/30 05:43:39;;;;;;;16.13;12.50;;;8.20;99.90;;;;;;4976463;28;20848;-70
2022/09/30 05:46:06;;;;;;;10.70;9.53;;;8.20;99.90;;;;;;4975761;28;20458;-69
2022/09/30 05:48:33;;;;;;;14.17;10.40;;;8.20;99.90;;;;;;4976084;28;20458;-70
2022/09/30 05:51:03;;;;;;;12.20;10.30;;;8.30;99.90;;;;;;4976364;28;20486;-70
2022/09/30 05:53:31;;;;;;;12.73;11.03;;;8.30;99.90;;;;;;4976218;28;20486;-70
2022/09/30 05:55:59;;;;;;;12.70;10.60;;;8.30;99.90;;;;;;4976605;28;20891;-70
2022/09/30 05:58:26;;;;;;;12.27;10.50;;;8.40;99.90;;;;;;4976432;28;20787;-70
2022/09/30 06:00:53;;;;;;;14.03;12.13;;;8.40;99.90;;;;;;4976358;28;20744;-69
2022/09/30 06:03:19;;;;;;;13.17;9.80;;;8.50;99.90;;;;;;4976189;28;20467;-69
2022/09/30 06:05:46;;;;;;;16.50;11.00;;;8.50;99.90;;;;;;4975905;28;20498;-69
2022/09/30 06:08:15;;;;;;;11.00;9.90;;;8.50;99.90;;;;;;4976264;28;20459;-69
2022/09/30 06:10:43;;;;;;;14.80;11.43;;;8.50;99.90;;;;;;4976377;28;20561;-70
2022/09/30 06:13:11;;;;;;;14.83;11.30;;;8.60;99.90;;;;;;4976521;28;20466;-70
2022/09/30 06:15:40;;;;;;;14.53;11.83;;;8.60;99.90;;;;;;4976623;28;20494;-69
2022/09/30 06:18:07;;;;;;;12.57;11.27;;;8.70;99.90;;;;;;4975714;28;20479;-70
2022/09/30 06:20:34;;;;;;;11.07;9.43;;;8.70;99.90;;;;;;4976093;28;20517;-70
2022/09/30 06:23:01;;;;;;;11.60;10.40;;;8.70;99.90;;;;;;4976497;28;20891;-70
2022/09/30 06:25:35;;;;;;;12.00;10.70;;;8.80;99.90;;;;;;4976164;28;20549;-71
2022/09/30 06:28:02;;;;;;;11.90;9.70;;;8.80;99.90;;;;;;4975497;28;20997;-69
2022/09/30 06:30:28;;;;;;;13.10;10.97;;;8.80;99.90;;;;;;4975671;28;20459;-69
2022/09/30 06:32:57;;;;;;;43.03;30.57;;;8.90;99.90;;;;;;4975502;28;20470;-69
2022/09/30 06:35:26;;;;;;;29.43;22.27;;;9.00;99.90;;;;;;4975603;28;20462;-70
2022/09/30 06:37:53;;;;;;;45.73;33.77;;;9.00;99.90;;;;;;4975494;28;20482;-70
2022/09/30 06:40:21;;;;;;;23.80;18.97;;;9.10;99.90;;;;;;4975928;28;20473;-69
2022/09/30 06:42:49;;;;;;;21.90;18.17;;;9.20;99.90;;;;;;4975806;28;20462;-69
2022/09/30 06:45:17;;;;;;;18.10;14.53;;;9.30;99.90;;;;;;4975498;28;20494;-69
2022/09/30 06:47:45;;;;;;;16.97;13.17;;;9.40;99.90;;;;;;4977066;28;20486;-69
2022/09/30 06:50:12;;;;;;;13.67;10.50;;;9.50;99.90;;;;;;4979202;28;20945;-69
2022/09/30 06:52:38;;;;;;;15.10;10.97;;;9.50;99.90;;;;;;4978816;28;20577;-69
2022/09/30 06:55:06;;;;;;;12.80;10.00;;;9.50;99.90;;;;;;4979952;28;20549;-69
2022/09/30 06:57:34;;;;;;;12.63;11.33;;;9.60;99.90;;;;;;4979850;28;20553;-69
2022/09/30 07:00:03;;;;;;;11.93;10.63;;;9.60;99.90;;;;;;4979340;28;20458;-70
2022/09/30 07:02:30;;;;;;;13.87;10.83;;;9.60;99.90;;;;;;4979616;28;20525;-69
2022/09/30 07:04:57;;;;;;;14.37;11.07;;;9.70;99.90;;;;;;4979671;28;20962;-69
2022/09/30 07:07:24;;;;;;;14.93;10.83;;;9.70;99.90;;;;;;4978983;28;20477;-70
2022/09/30 07:09:51;;;;;;;12.80;10.77;;;9.80;99.90;;;;;;4979104;28;20487;-70
2022/09/30 07:12:18;;;;;;;12.30;10.40;;;9.80;99.90;;;;;;4979013;28;20848;-68
2022/09/30 07:14:45;;;;;;;12.67;9.90;;;9.90;99.90;;;;;;4978889;28;20776;-69
2022/09/30 07:17:13;;;;;;;13.10;11.07;;;10.00;99.90;;;;;;4979089;28;20473;-69
2022/09/30 07:19:40;;;;;;;17.40;12.37;;;10.00;99.90;;;;;;4978231;28;20482;-70
2022/09/30 07:24:51;;;;;;;12.57;11.30;;;10.20;99.90;;;;;;4978565;28;20426;-70
2022/09/30 07:27:19;;;;;;;16.00;10.50;;;10.20;99.90;;;;;;4978614;28;20903;-70
2022/09/30 07:29:47;;;;;;;17.50;10.93;;;10.30;99.90;;;;;;4978478;28;20494;-70
2022/09/30 07:32:15;;;;;;;14.83;10.50;;;10.30;99.90;;;;;;4978722;28;20458;-70
2022/09/30 07:34:42;;;;;;;17.23;12.40;;;10.40;99.90;;;;;;4978236;28;20467;-69
2022/09/30 07:37:10;;;;;;;16.23;11.30;;;10.50;99.90;;;;;;4979449;28;20772;-70
2022/09/30 07:39:38;;;;;;;12.40;10.80;;;10.60;99.90;;;;;;4978425;28;20514;-70
2022/09/30 07:42:04;;;;;;;18.60;12.40;;;10.70;99.90;;;;;;4979054;28;20494;-69
2022/09/30 07:44:31;;;;;;;15.73;11.50;;;10.80;99.90;;;;;;4978471;28;20463;-70
2022/09/30 07:46:59;;;;;;;12.50;11.23;;;10.80;99.90;;;;;;4978623;28;20498;-70
2022/09/30 07:49:28;;;;;;;12.23;10.43;;;10.90;99.90;;;;;;4978516;28;20745;-70
2022/09/30 07:51:57;;;;;;;13.67;10.97;;;10.90;99.90;;;;;;4978193;28;20490;-70
2022/09/30 07:54:26;;;;;;;12.60;10.87;;;11.00;99.90;;;;;;4978461;28;20763;-70
2022/09/30 07:56:53;;;;;;;15.03;11.40;;;11.10;99.90;;;;;;4978440;28;20907;-70
2022/09/30 07:59:20;;;;;;;14.17;9.70;;;11.20;99.90;;;;;;4977944;28;20888;-70
2022/09/30 08:01:48;;;;;;;15.73;9.87;;;11.30;99.90;;;;;;4977762;28;20458;-70
2022/09/30 08:04:16;;;;;;;15.50;11.23;;;11.30;99.90;;;;;;4978293;28;20462;-70
2022/09/30 08:06:46;;;;;;;13.77;11.23;;;11.40;99.90;;;;;;4978452;28;20775;-69
2022/09/30 08:09:15;;;;;;;13.20;11.80;;;11.50;99.90;;;;;;4978022;28;20453;-70
2022/09/30 08:11:42;;;;;;;16.07;11.83;;;11.60;99.90;;;;;;4977988;28;20863;-70
2022/09/30 08:14:14;;;;;;;13.37;11.60;;;11.70;99.90;;;;;;4978198;28;20459;-70
2022/09/30 08:16:41;;;;;;;15.50;11.43;;;11.90;99.90;;;;;;4978224;28;20447;-70
2022/09/30 08:19:12;;;;;;;13.70;11.33;;;11.90;99.90;;;;;;4977424;28;20486;-70
2022/09/30 08:21:39;;;;;;;13.90;11.00;;;12.00;99.90;;;;;;4977519;28;20905;-70
2022/09/30 08:24:07;;;;;;;15.13;11.90;;;12.10;99.90;;;;;;4977645;28;20458;-70
2022/09/30 08:26:34;;;;;;;12.10;10.80;;;12.20;99.90;;;;;;4978048;28;20469;-71
2022/09/30 08:29:01;;;;;;;17.67;12.30;;;12.30;99.90;;;;;;4977813;28;20486;-71
2022/09/30 08:31:28;;;;;;;16.90;13.00;;;12.40;99.90;;;;;;4977393;28;20542;-69
2022/09/30 08:33:56;;;;;;;14.50;12.00;;;12.50;99.90;;;;;;4977890;28;20499;-70
2022/09/30 08:36:24;;;;;;;16.00;12.10;;;12.60;99.90;;;;;;4977503;28;20474;-70
2022/09/30 08:38:51;;;;;;;14.47;12.50;;;12.70;99.90;;;;;;4977217;28;20497;-70
2022/09/30 08:41:37;;;;;;;12.57;11.37;;;12.70;99.90;;;;;;4977478;28;20462;-69
2022/09/30 08:44:18;;;;;;;13.73;11.43;;;12.80;99.90;;;;;;4977356;28;20442;-72
2022/09/30 08:46:48;;;;;;;16.37;12.80;;;12.90;99.90;;;;;;4977432;28;20479;-71
2022/09/30 08:49:30;;;;;;;16.87;12.60;;;13.00;99.90;;;;;;4977366;28;20455;-70
2022/09/30 08:51:59;;;;;;;13.57;11.50;;;13.10;99.90;;;;;;4976812;28;20509;-70
2022/09/30 08:54:31;;;;;;;17.53;11.90;;;13.30;99.90;;;;;;4977088;28;20463;-70
2022/09/30 08:57:01;;;;;;;15.23;11.97;;;13.30;99.90;;;;;;4977750;28;20469;-69
2022/09/30 08:59:32;;;;;;;16.33;11.13;;;13.40;99.90;;;;;;4977075;28;20581;-71
2022/09/30 09:02:12;;;;;;;13.40;11.50;;;13.50;99.90;;;;;;4977679;28;20738;-70
2022/09/30 09:04:40;;;;;;;16.60;11.70;;;13.60;99.90;;;;;;4977264;28;20447;-69
2022/09/30 09:07:17;;;;;;;15.30;13.70;;;13.60;99.90;;;;;;4976951;28;20459;-70
2022/09/30 09:09:56;;;;;;;14.27;11.37;;;13.70;99.90;;;;;;4976689;28;20453;-70
2022/09/30 09:12:35;;;;;;;13.13;11.73;;;13.80;99.90;;;;;;4977604;28;20442;-70
2022/09/30 09:15:28;;;;;;;14.87;9.60;;;13.90;99.90;;;;;;4978168;28;20535;-69
2022/09/30 09:18:13;;;;;;;12.27;9.20;;;14.00;99.90;;;;;;4972797;28;20776;-70
2022/09/30 09:20:47;;;;;;;10.80;9.23;;;14.00;99.90;;;;;;4977017;28;20447;-70
2022/09/30 09:23:14;;;;;;;10.77;9.67;;;13.90;99.90;;;;;;4976873;28;20451;-70
2022/09/30 09:25:43;;;;;;;14.20;9.17;;;14.00;99.90;;;;;;4976746;28;20458;-70
2022/09/30 09:28:24;;;;;;;10.30;9.23;;;14.00;99.90;;;;;;4976708;28;20459;-69
2022/09/30 09:30:57;;;;;;;9.77;8.73;;;14.10;99.90;;;;;;4976991;28;20534;-70
2022/09/30 09:33:28;;;;;;;9.73;8.80;;;14.20;99.90;;;;;;4976684;28;20535;-70
2022/09/30 09:36:05;;;;;;;10.40;8.20;;;14.30;99.90;;;;;;4976033;28;20457;-69
2022/09/30 09:38:43;;;;;;;10.87;9.40;;;14.30;99.90;;;;;;4976213;28;20457;-69
2022/09/30 09:41:20;;;;;;;10.30;9.20;;;14.30;99.90;;;;;;4976225;28;20461;-69
2022/09/30 09:43:59;;;;;;;10.53;9.37;;;14.40;99.90;;;;;;4975942;28;20446;-69
2022/09/30 09:46:30;;;;;;;10.23;8.40;;;14.50;99.90;;;;;;4976147;28;20447;-70
2022/09/30 09:49:28;;;;;;;9.50;8.53;;;14.50;99.90;;;;;;4976244;28;20786;-69
2022/09/30 09:52:05;;;;;;;9.90;8.90;;;14.60;99.90;;;;;;4973693;28;20482;-69
2022/09/30 09:54:37;;;;;;;8.50;7.50;;;14.70;99.90;;;;;;4956348;29;20558;-70
2022/09/30 09:57:08;;;;;;;9.43;8.57;;;14.70;99.90;;;;;;4956739;29;20458;-69
2022/09/30 09:59:38;;;;;;;9.43;8.43;;;14.80;99.90;;;;;;4956633;29;20487;-69
2022/09/30 10:02:22;;;;;;;10.40;9.10;;;14.90;99.90;;;;;;4956934;29;20467;-69
2022/09/30 10:04:58;;;;;;;9.90;8.93;;;15.00;99.90;;;;;;4956527;29;20452;-69
2022/09/30 10:07:26;;;;;;;8.07;7.37;;;15.00;99.90;;;;;;4956706;29;20554;-69
2022/09/30 10:10:07;;;;;;;12.30;8.10;;;15.10;99.90;;;;;;4957019;29;20826;-69
2022/09/30 10:12:35;;;;;;;13.30;8.37;;;15.10;99.90;;;;;;4956831;29;20448;-70
2022/09/30 10:15:20;;;;;;;8.73;7.47;;;15.20;99.90;;;;;;4956965;29;20460;-70
2022/09/30 10:17:52;;;;;;;9.13;7.57;;;15.30;99.90;;;;;;4956432;29;20451;-70
2022/09/30 10:20:26;;;;;;;13.40;7.27;;;15.40;99.90;;;;;;4956629;29;20534;-70
2022/09/30 10:23:03;;;;;;;7.73;6.97;;;15.40;99.90;;;;;;4959776;28;20892;-70
2022/09/30 10:25:30;;;;;;;8.23;7.43;;;15.40;99.90;;;;;;4960400;29;20877;-70
2022/09/30 10:27:59;;;;;;;7.80;7.10;;;15.40;99.90;;;;;;4960170;29;20470;-71
2022/09/30 10:30:51;;;;;;;7.17;6.47;;;15.50;99.90;;;;;;4959938;29;20455;-70
2022/09/30 10:33:27;;;;;;;8.00;7.20;;;15.60;99.90;;;;;;4956910;29;20932;-70
2022/09/30 10:36:14;;;;;;;8.30;6.83;;;15.60;99.90;;;;;;4960363;29;20439;-70
2022/09/30 10:38:57;;;;;;;6.47;5.87;;;15.70;99.90;;;;;;4959969;29;20440;-70
2022/09/30 10:41:26;;;;;;;7.57;6.77;;;15.70;99.90;;;;;;4959920;29;20448;-68
2022/09/30 10:43:55;;;;;;;6.23;5.63;;;15.80;99.90;;;;;;4959818;29;20471;-68
2022/09/30 10:46:26;;;;;;;10.30;6.10;;;15.70;99.90;;;;;;4959836;29;20513;-69
2022/09/30 10:48:55;;;;;;;7.03;5.90;;;15.80;99.90;;;;;;4960262;29;20440;-69
2022/09/30 10:51:26;;;;;;;10.07;7.13;;;15.90;99.90;;;;;;4959611;29;20463;-70
2022/09/30 10:53:54;;;;;;;7.27;6.53;;;16.00;99.90;;;;;;4959228;28;20908;-69
2022/09/30 10:56:43;;;;;;;5.80;5.23;;;16.10;99.90;;;;;;4959360;29;20459;-69
2022/09/30 10:59:23;;;;;;;6.30;5.47;;;16.20;99.90;;;;;;4959532;29;20481;-69
2022/09/30 11:01:56;;;;;;;6.83;6.00;;;16.30;99.90;;;;;;4959127;29;20444;-70
2022/09/30 11:04:28;;;;;;;7.60;5.07;;;16.30;99.90;;;;;;4958946;29;20903;-70
2022/09/30 11:07:03;;;;;;;4.83;4.43;;;16.30;99.90;;;;;;4959568;29;20447;-70
2022/09/30 11:09:36;;;;;;;5.47;4.97;;;16.50;99.90;;;;;;4959676;29;20443;-70
2022/09/30 11:12:12;;;;;;;6.20;4.90;;;16.50;99.90;;;;;;4959552;29;20535;-69
2022/09/30 11:14:44;;;;;;;4.90;4.50;;;16.60;99.90;;;;;;4959560;29;20447;-71
2022/09/30 11:17:23;;;;;;;6.40;4.90;;;16.70;99.90;;;;;;4959198;29;20528;-68
2022/09/30 11:19:59;;;;;;;5.33;4.53;;;16.70;99.90;;;;;;4958845;29;20467;-69
2022/09/30 11:22:33;;;;;;;4.53;4.13;;;16.80;99.90;;;;;;4959153;29;20458;-69
2022/09/30 11:25:01;;;;;;;5.57;4.90;;;16.90;99.90;;;;;;4958930;29;20448;-69
2022/09/30 11:27:43;;;;;;;7.23;4.37;;;17.00;99.90;;;;;;4959862;29;20460;-70
2022/09/30 11:30:14;;;;;;;5.90;4.40;;;17.20;99.90;;;;;;4959100;29;20499;-68
2022/09/30 11:33:00;;;;;;;4.30;3.83;;;17.20;99.90;;;;;;4959218;28;20448;-69
2022/09/30 11:35:42;;;;;;;4.77;4.30;;;17.20;99.90;;;;;;4959254;29;20458;-69
2022/09/30 11:38:16;;;;;;;4.20;3.80;;;17.30;99.90;;;;;;4959043;29;20448;-69
2022/09/30 11:40:53;;;;;;;5.17;3.60;;;17.40;99.90;;;;;;4958574;29;20812;-70
2022/09/30 11:43:30;;;;;;;4.93;3.97;;;17.70;99.90;;;;;;4958874;29;20458;-70
2022/09/30 11:46:15;;;;;;;4.60;3.40;;;17.90;99.90;;;;;;4958646;29;20482;-70
2022/09/30 11:49:02;;;;;;;5.40;3.27;;;18.40;99.90;;;;;;4958618;29;20534;-70
2022/09/30 11:51:38;;;;;;;3.77;3.13;;;19.00;99.90;;;;;;4959088;29;20850;-70
2022/09/30 11:54:20;;;;;;;3.20;3.00;;;19.60;99.90;;;;;;4959012;29;20507;-69
2022/09/30 11:56:53;;;;;;;5.60;3.07;;;20.40;99.90;;;;;;4958674;29;20444;-69
2022/09/30 11:59:25;;;;;;;4.07;3.60;;;21.20;99.90;;;;;;4958286;29;20468;-70
2022/09/30 12:01:54;;;;;;;4.80;3.33;;;21.70;99.90;;;;;;4958579;29;20448;-70
2022/09/30 12:04:30;;;;;;;3.70;3.30;;;22.10;99.90;;;;;;4958764;29;20475;-70
2022/09/30 12:07:00;;;;;;;3.50;3.20;;;23.00;98.40;;;;;;4958576;29;20482;-69
2022/09/30 12:09:32;;;;;;;3.67;2.87;;;23.90;90.70;;;;;;4958340;29;20440;-68
2022/09/30 12:12:02;;;;;;;3.77;3.10;;;24.00;83.60;;;;;;4958569;29;20862;-68
2022/09/30 12:14:35;;;;;;;2.67;2.47;;;23.90;79.80;;;;;;4958551;29;20927;-69
2022/09/30 12:17:10;;;;;;;4.17;2.57;;;24.10;81.00;;;;;;4958536;29;20443;-69
2022/09/30 12:19:44;;;;;;;2.40;2.20;;;24.70;74.20;;;;;;4958966;29;20953;-69
2022/09/30 12:22:14;;;;;;;8.10;2.77;;;24.80;64.00;;;;;;4958086;29;20526;-69
2022/09/30 12:24:42;;;;;;;4.23;2.90;;;24.80;64.50;;;;;;4957979;29;20451;-69
2022/09/30 12:27:16;;;;;;;7.00;3.80;;;25.10;61.20;;;;;;4957494;29;20905;-68
2022/09/30 12:33:13;;;;;;;3.27;2.50;;;26.00;59.30;;;;;;4957728;29;20424;-69
2022/09/30 12:36:01;;;;;;;4.53;2.57;;;26.80;56.40;;;;;;4957903;29;20845;-68
2022/09/30 12:38:48;;;;;;;4.77;3.00;;;25.90;54.10;;;;;;4957409;29;20494;-70
2022/09/30 12:41:34;;;;;;;3.13;2.07;;;25.00;55.70;;;;;;4957573;29;20471;-70
2022/09/30 12:44:40;;;;;;;3.90;2.10;;;24.70;54.80;;;;;;4957630;29;20459;-70
2022/09/30 12:47:19;;;;;;;2.73;1.77;;;24.70;53.40;;;;;;4955023;29;20487;-69
2022/09/30 12:49:47;;;;;;;2.37;1.70;;;24.60;52.20;;;;;;4958629;29;20915;-70
2022/09/30 12:52:19;;;;;;;2.10;1.70;;;24.70;51.70;;;;;;4958405;28;20487;-69
2022/09/30 12:54:52;;;;;;;3.40;3.10;;;25.00;51.90;;;;;;4958419;29;20448;-69
2022/09/30 12:57:24;;;;;;;1.97;1.77;;;25.40;51.70;;;;;;4957568;29;20538;-70
2022/09/30 12:59:53;;;;;;;6.10;5.20;;;25.60;51.80;;;;;;4957501;29;20534;-69
2022/09/30 13:02:31;;;;;;;2.50;1.80;;;26.10;50.70;;;;;;4957646;29;20862;-69
2022/09/30 13:05:38;;;;;;;3.50;1.67;;;26.20;49.50;;;;;;4958265;29;20448;-69
2022/09/30 13:08:46;;;;;;;2.00;1.73;;;26.30;47.90;;;;;;4938458;29;20467;-69
2022/09/30 13:11:35;;;;;;;3.33;2.00;;;26.50;47.20;;;;;;4957166;29;20459;-68
2022/09/30 13:14:13;;;;;;;2.20;1.60;;;25.40;47.00;;;;;;4957334;29;20994;-68